createdAt,value
2022-09-27T00:01:03.891Z,5.30
2022-09-27T00:03:32.980Z,5.17
2022-09-27T00:06:07.563Z,4.95
2022-09-27T00:08:37.355Z,5.43
2022-09-27T00:11:10.109Z,5.23
2022-09-27T00:13:38.402Z,5.07
2022-09-27T00:16:06.861Z,4.93
2022-09-27T00:18:35.784Z,5.05
2022-09-27T00:21:09.673Z,5.25
2022-09-27T00:23:38.971Z,5.10
2022-09-27T00:26:12.954Z,4.43
2022-09-27T00:28:41.301Z,4.32
2022-09-27T00:31:21.345Z,4.65
2022-09-27T00:33:50.766Z,5.00
2022-09-27T00:36:20.517Z,4.70
2022-09-27T00:38:49.563Z,5.43
2022-09-27T00:41:23.145Z,5.07
2022-09-27T00:43:55.131Z,4.20
2022-09-27T00:46:31.119Z,4.93
2022-09-27T00:49:08.309Z,4.63
2022-09-27T00:51:38.998Z,4.38
2022-09-27T00:54:09.173Z,4.80
2022-09-27T00:56:39.101Z,5.38
2022-09-27T00:59:14.361Z,5.32
2022-09-27T01:01:43.213Z,5.57
2022-09-27T01:04:14.667Z,5.40
2022-09-27T01:06:42.885Z,5.43
2022-09-27T01:09:13.178Z,6.25
2022-09-27T01:11:47.486Z,4.53
2022-09-27T01:14:38.808Z,4.85
2022-09-27T01:17:25.647Z,5.50
2022-09-27T01:20:36.458Z,4.70
2022-09-27T01:23:48.274Z,4.82
2022-09-27T01:26:33.196Z,4.50
2022-09-27T01:29:11.464Z,5.03
2022-09-27T01:31:50.718Z,4.80
2022-09-27T01:34:27.860Z,3.95
2022-09-27T01:37:03.052Z,4.45
2022-09-27T01:39:41.284Z,4.60
2022-09-27T01:42:34.843Z,5.20
2022-09-27T01:45:10.662Z,4.85
2022-09-27T01:47:55.080Z,4.60
2022-09-27T01:50:47.109Z,4.68
2022-09-27T01:53:22.074Z,4.40
2022-09-27T01:56:13.059Z,3.95
2022-09-27T01:58:57.409Z,3.72
2022-09-27T02:01:30.395Z,4.03
2022-09-27T02:04:02.696Z,3.78
2022-09-27T02:06:59.423Z,3.72
2022-09-27T02:09:37.943Z,3.70
2022-09-27T02:12:28.452Z,4.10
2022-09-27T02:15:01.990Z,4.03
2022-09-27T02:17:43.019Z,4.05
2022-09-27T02:20:19.847Z,4.07
2022-09-27T02:23:04.587Z,4.07
2022-09-27T02:25:41.816Z,3.27
2022-09-27T02:28:21.810Z,3.97
2022-09-27T02:30:50.609Z,4.10
2022-09-27T02:33:31.696Z,3.42
2022-09-27T02:36:03.480Z,3.80
2022-09-27T02:41:01.809Z,4.17
2022-09-27T02:43:33.246Z,3.38
2022-09-27T02:46:34.929Z,3.85
2022-09-27T02:49:21.421Z,3.80
2022-09-27T02:52:19.167Z,3.70
2022-09-27T02:54:59.955Z,3.95
2022-09-27T02:58:04.336Z,3.97
2022-09-27T03:01:03.286Z,3.70
2022-09-27T03:03:57.201Z,4.00
2022-09-27T03:06:26.347Z,3.88
2022-09-27T03:08:56.875Z,3.70
2022-09-27T03:11:25.740Z,3.30
2022-09-27T03:14:08.267Z,4.22
2022-09-27T03:16:41.962Z,4.07
2022-09-27T03:19:32.906Z,3.80
2022-09-27T03:22:21.687Z,4.18
2022-09-27T03:24:51.502Z,3.95
2022-09-27T03:27:19.823Z,3.70
2022-09-27T03:29:47.999Z,4.63
2022-09-27T03:32:17.627Z,3.40
2022-09-27T03:35:09.211Z,3.40
2022-09-27T03:37:37.915Z,3.28
2022-09-27T03:40:09.365Z,3.47
2022-09-27T03:42:37.762Z,3.13
2022-09-27T03:45:07.647Z,3.10
2022-09-27T03:47:35.978Z,3.35
2022-09-27T03:50:04.368Z,3.65
2022-09-27T03:52:32.583Z,3.53
2022-09-27T03:55:02.398Z,4.30
2022-09-27T04:00:01.715Z,3.90
2022-09-27T04:02:42.168Z,3.90
2022-09-27T04:05:26.106Z,4.00
2022-09-27T04:08:06.264Z,3.40
2022-09-27T04:10:36.797Z,4.05
2022-09-27T04:13:07.710Z,4.47
2022-09-27T04:15:42.312Z,4.90
2022-09-27T04:18:25.827Z,3.97
2022-09-27T04:21:09.700Z,3.78
2022-09-27T04:23:43.246Z,4.22
2022-09-27T04:26:15.455Z,3.88
2022-09-27T04:28:54.686Z,4.50
2022-09-27T04:31:23.261Z,3.90
2022-09-27T04:34:09.934Z,4.15
2022-09-27T04:36:38.058Z,3.85
2022-09-27T04:39:12.101Z,3.80
2022-09-27T04:41:45.488Z,3.92
2022-09-27T04:44:15.847Z,4.22
2022-09-27T04:46:48.089Z,4.00
2022-09-27T04:49:17.785Z,3.55
2022-09-27T04:51:46.905Z,3.75
2022-09-27T04:54:16.132Z,3.83
2022-09-27T04:56:56.383Z,4.20
2022-09-27T04:59:26.054Z,3.67
2022-09-27T05:01:54.303Z,3.90
2022-09-27T05:04:43.025Z,3.97
2022-09-27T05:07:12.438Z,4.45
2022-09-27T05:09:46.843Z,4.10
2022-09-27T05:12:15.092Z,3.72
2022-09-27T05:14:56.614Z,4.05
2022-09-27T05:17:45.548Z,4.40
2022-09-27T05:20:20.042Z,4.07
2022-09-27T05:23:04.694Z,4.28
2022-09-27T05:25:34.139Z,4.20
2022-09-27T05:28:02.905Z,3.85
2022-09-27T05:30:33.138Z,4.45
2022-09-27T05:33:13.439Z,3.72
2022-09-27T05:35:54.407Z,4.03
2022-09-27T05:38:26.257Z,3.92
2022-09-27T05:40:58.022Z,4.00
2022-09-27T05:43:28.325Z,4.18
2022-09-27T05:46:00.777Z,4.22
2022-09-27T05:51:06.248Z,3.67
2022-09-27T05:53:37.830Z,3.97
2022-09-27T05:56:09.290Z,4.53
2022-09-27T05:58:58.557Z,3.70
2022-09-27T06:01:31.158Z,4.05
2022-09-27T06:04:17.935Z,4.20
2022-09-27T06:07:15.047Z,4.30
2022-09-27T06:09:44.288Z,3.80
2022-09-27T06:12:13.085Z,3.60
2022-09-27T06:14:41.470Z,3.70
2022-09-27T06:17:16.366Z,3.85
2022-09-27T06:19:47.688Z,3.80
2022-09-27T06:22:16.737Z,4.10
2022-09-27T06:24:56.469Z,4.00
2022-09-27T06:27:27.776Z,3.90
2022-09-27T06:30:00.954Z,3.88
2022-09-27T06:32:42.969Z,4.32
2022-09-27T06:35:31.134Z,3.92
2022-09-27T06:37:59.601Z,3.55
2022-09-27T06:40:28.208Z,4.05
2022-09-27T06:43:19.770Z,3.92
2022-09-27T06:46:07.172Z,3.93
2022-09-27T06:48:56.579Z,4.32
2022-09-27T06:53:53.198Z,3.80
2022-09-27T06:56:21.936Z,3.50
2022-09-27T06:59:24.434Z,3.85
2022-09-27T07:02:11.761Z,3.92
2022-09-27T07:05:03.576Z,3.42
2022-09-27T07:07:44.093Z,3.85
2022-09-27T07:10:13.229Z,3.92
2022-09-27T07:12:41.581Z,4.03
2022-09-27T07:15:12.622Z,3.90
2022-09-27T07:17:41.058Z,3.30
2022-09-27T07:20:11.731Z,3.88
2022-09-27T07:22:42.967Z,3.95
2022-09-27T07:25:12.028Z,3.50
2022-09-27T07:27:42.013Z,3.70
2022-09-27T07:30:13.185Z,3.38
2022-09-27T07:32:42.339Z,3.20
2022-09-27T07:35:15.538Z,3.85
2022-09-27T07:37:45.427Z,3.70
2022-09-27T07:40:15.167Z,3.63
2022-09-27T07:42:43.959Z,3.70
2022-09-27T07:45:13.109Z,4.28
2022-09-27T07:48:01.573Z,3.50
2022-09-27T07:50:49.680Z,3.88
2022-09-27T07:53:41.129Z,3.55
2022-09-27T07:56:27.921Z,3.78
2022-09-27T07:58:57.343Z,3.63
2022-09-27T08:01:25.893Z,3.47
2022-09-27T08:03:54.240Z,3.50
2022-09-27T08:06:25.156Z,4.38
2022-09-27T08:08:54.855Z,3.38
2022-09-27T08:11:23.133Z,3.72
2022-09-27T08:13:53.048Z,3.55
2022-09-27T08:16:25.643Z,4.45
2022-09-27T08:19:15.073Z,4.20
2022-09-27T08:22:03.913Z,3.08
2022-09-27T08:24:55.020Z,3.72
2022-09-27T08:27:41.344Z,3.58
2022-09-27T08:30:21.352Z,3.67
2022-09-27T08:32:49.599Z,3.45
2022-09-27T08:35:17.824Z,3.83
2022-09-27T08:37:55.398Z,3.97
2022-09-27T08:40:27.726Z,3.78
2022-09-27T08:43:07.215Z,3.50
2022-09-27T08:45:42.883Z,3.88
2022-09-27T08:48:12.561Z,3.70
2022-09-27T08:50:45.940Z,3.60
2022-09-27T08:53:24.898Z,3.10
2022-09-27T08:55:57.051Z,3.67
2022-09-27T08:58:31.296Z,3.53
2022-09-27T09:01:04.341Z,4.55
2022-09-27T09:03:45.069Z,4.03
2022-09-27T09:06:21.004Z,3.33
2022-09-27T09:09:05.251Z,4.28
2022-09-27T09:12:07.802Z,4.43
2022-09-27T09:15:04.714Z,4.35
2022-09-27T09:17:56.153Z,4.45
2022-09-27T09:20:53.721Z,3.65
2022-09-27T09:23:39.323Z,4.22
2022-09-27T09:26:15.456Z,3.63
2022-09-27T09:29:06.203Z,4.18
2022-09-27T09:31:43.896Z,4.15
2022-09-27T09:34:21.899Z,4.10
2022-09-27T09:36:57.736Z,3.72
2022-09-27T09:39:31.715Z,3.53
2022-09-27T09:42:12.665Z,3.22
2022-09-27T09:44:49.177Z,3.10
2022-09-27T09:47:29.576Z,3.17
2022-09-27T09:50:02.766Z,3.30
2022-09-27T09:52:41.230Z,3.50
2022-09-27T09:55:21.573Z,3.45
2022-09-27T09:58:08.187Z,3.20
2022-09-27T10:00:45.636Z,3.20
2022-09-27T10:03:13.999Z,3.20
2022-09-27T10:05:45.560Z,3.25
2022-09-27T10:08:22.083Z,2.97
2022-09-27T10:10:58.555Z,3.38
2022-09-27T10:13:37.921Z,3.10
2022-09-27T10:16:11.555Z,3.63
2022-09-27T10:18:47.624Z,3.20
2022-09-27T10:21:23.843Z,3.15
2022-09-27T10:24:16.603Z,3.00
2022-09-27T10:27:15.211Z,2.80
2022-09-27T10:29:44.939Z,2.95
2022-09-27T10:32:27.181Z,3.22
2022-09-27T10:35:35.326Z,3.40
2022-09-27T10:38:24.943Z,3.30
2022-09-27T10:41:16.704Z,3.38
2022-09-27T10:43:45.332Z,3.20
2022-09-27T10:46:29.780Z,3.55
2022-09-27T10:49:19.616Z,3.88
2022-09-27T10:51:54.118Z,3.50
2022-09-27T10:54:27.680Z,3.42
2022-09-27T10:57:04.643Z,3.45
2022-09-27T10:59:37.272Z,3.33
2022-09-27T11:02:07.928Z,3.20
2022-09-27T11:04:40.400Z,3.58
2022-09-27T11:07:20.326Z,3.50
2022-09-27T11:10:03.849Z,3.20
2022-09-27T11:12:36.711Z,3.08
2022-09-27T11:15:08.719Z,3.42
2022-09-27T11:17:53.136Z,3.20
2022-09-27T11:20:33.692Z,4.70
2022-09-27T11:23:40.338Z,3.95
2022-09-27T11:26:29.913Z,4.22
2022-09-27T11:29:12.892Z,4.10
2022-09-27T11:32:20.354Z,3.97
2022-09-27T11:35:21.728Z,4.43
2022-09-27T11:38:04.164Z,3.85
2022-09-27T11:41:03.255Z,4.03
2022-09-27T11:43:52.494Z,3.63
2022-09-27T11:46:38.685Z,3.80
2022-09-27T11:49:47.685Z,4.05
2022-09-27T11:52:46.550Z,3.70
2022-09-27T11:55:31.268Z,3.65
2022-09-27T11:58:06.224Z,3.38
2022-09-27T12:00:53.370Z,3.97
2022-09-27T12:04:18.234Z,3.88
2022-09-27T12:06:56.201Z,4.18
2022-09-27T12:09:31.699Z,3.92
2022-09-27T12:12:06.146Z,3.95
2022-09-27T12:14:38.789Z,3.85
2022-09-27T12:17:13.474Z,3.95
2022-09-27T12:19:51.648Z,3.22
2022-09-27T12:22:53.885Z,3.33
2022-09-27T12:25:21.203Z,3.75
2022-09-27T12:28:24.613Z,3.28
2022-09-27T12:31:27.439Z,3.22
2022-09-27T12:34:01.802Z,2.95
2022-09-27T12:36:38.458Z,3.70
2022-09-27T12:39:18.790Z,3.53
2022-09-27T12:42:01.912Z,3.83
2022-09-27T12:44:45.916Z,3.83
2022-09-27T12:47:53.916Z,3.85
2022-09-27T12:50:31.602Z,4.05
2022-09-27T12:53:06.586Z,3.92
2022-09-27T12:56:09.309Z,3.85
2022-09-27T12:59:07.559Z,3.97
2022-09-27T13:01:56.202Z,4.03
2022-09-27T13:04:47.764Z,4.00
2022-09-27T13:07:36.191Z,4.68
2022-09-27T13:10:34.144Z,3.95
2022-09-27T13:13:12.954Z,3.60
2022-09-27T13:15:46.425Z,3.88
2022-09-27T13:18:48.833Z,4.07
2022-09-27T13:22:01.671Z,4.00
2022-09-27T13:24:48.784Z,3.90
2022-09-27T13:27:45.066Z,4.20
2022-09-27T13:30:47.419Z,3.97
2022-09-27T13:33:50.332Z,4.10
2022-09-27T13:36:34.213Z,3.92
2022-09-27T13:39:23.138Z,4.15
2022-09-27T13:42:37.321Z,4.20
2022-09-27T13:45:28.894Z,4.55
2022-09-27T13:48:00.398Z,4.40
2022-09-27T13:50:47.628Z,4.30
2022-09-27T13:53:27.868Z,3.55
2022-09-27T13:55:59.217Z,3.97
2022-09-27T13:58:51.347Z,4.03
2022-09-27T14:01:43.848Z,4.30
2022-09-27T14:04:19.776Z,4.30
2022-09-27T14:06:52.454Z,5.03
2022-09-27T14:09:26.653Z,4.32
2022-09-27T14:12:12.359Z,4.30
2022-09-27T14:14:43.873Z,4.40
2022-09-27T14:17:12.780Z,4.40
2022-09-27T14:19:44.945Z,4.35
2022-09-27T14:22:15.723Z,4.53
2022-09-27T14:24:56.891Z,4.32
2022-09-27T14:27:39.276Z,4.25
2022-09-27T14:30:27.749Z,4.20
2022-09-27T14:33:05.350Z,4.43
2022-09-27T14:36:08.152Z,4.13
2022-09-27T14:38:38.994Z,4.07
2022-09-27T14:41:17.696Z,3.85
2022-09-27T14:43:50.563Z,3.78
2022-09-27T14:46:28.207Z,4.43
2022-09-27T14:48:57.291Z,4.53
2022-09-27T14:51:31.217Z,4.10
2022-09-27T14:54:04.314Z,4.20
2022-09-27T14:56:37.258Z,4.13
2022-09-27T14:59:17.818Z,4.47
2022-09-27T15:01:51.417Z,4.18
2022-09-27T15:04:21.770Z,3.88
2022-09-27T15:06:50.674Z,4.18
2022-09-27T15:09:19.633Z,3.58
2022-09-27T15:11:54.959Z,4.45
2022-09-27T15:14:26.016Z,4.25
2022-09-27T15:16:56.887Z,4.13
2022-09-27T15:19:29.001Z,3.90
2022-09-27T15:21:58.285Z,3.92
2022-09-27T15:24:41.027Z,4.40
2022-09-27T15:27:18.092Z,3.38
2022-09-27T15:29:52.299Z,4.25
2022-09-27T15:32:23.902Z,4.28
2022-09-27T15:34:52.660Z,4.22
2022-09-27T15:37:29.747Z,4.30
2022-09-27T15:40:10.115Z,4.47
2022-09-27T15:42:56.306Z,4.35
2022-09-27T15:45:31.344Z,4.40
2022-09-27T15:48:09.273Z,5.13
2022-09-27T15:50:41.088Z,5.20
2022-09-27T15:53:10.817Z,5.15
2022-09-27T15:55:43.411Z,4.40
2022-09-27T15:58:16.935Z,4.30
2022-09-27T16:00:57.908Z,3.72
2022-09-27T16:03:27.890Z,3.72
2022-09-27T16:05:58.044Z,3.80
2022-09-27T16:08:27.410Z,4.10
2022-09-27T16:10:57.880Z,3.60
2022-09-27T16:13:31.842Z,4.05
2022-09-27T16:16:04.202Z,4.43
2022-09-27T16:18:32.900Z,4.95
2022-09-27T16:21:01.452Z,4.18
2022-09-27T16:23:29.798Z,3.88
2022-09-27T16:25:58.119Z,3.90
2022-09-27T16:28:26.522Z,4.28
2022-09-27T16:30:54.809Z,3.70
2022-09-27T16:33:24.807Z,4.05
2022-09-27T16:35:53.018Z,4.07
2022-09-27T16:38:21.365Z,3.97
2022-09-27T16:40:49.645Z,3.70
2022-09-27T16:43:18.631Z,4.03
2022-09-27T16:45:46.937Z,3.70
2022-09-27T16:48:15.317Z,4.22
2022-09-27T16:51:02.267Z,3.97
2022-09-27T16:53:31.222Z,3.70
2022-09-27T16:56:00.670Z,4.78
2022-09-27T16:58:30.819Z,3.88
2022-09-27T17:01:00.068Z,3.67
2022-09-27T17:03:28.637Z,4.20
2022-09-27T17:06:02.624Z,4.68
2022-09-27T17:08:30.933Z,4.30
2022-09-27T17:11:00.218Z,4.25
2022-09-27T17:13:28.774Z,4.13
2022-09-27T17:15:57.118Z,3.80
2022-09-27T17:18:25.591Z,3.83
2022-09-27T17:20:53.988Z,4.10
2022-09-27T17:23:23.600Z,8.00
2022-09-27T17:25:52.191Z,6.40
2022-09-27T17:28:20.505Z,8.38
2022-09-27T17:30:48.850Z,5.93
2022-09-27T17:33:17.115Z,4.00
2022-09-27T17:35:47.857Z,4.47
2022-09-27T17:40:46.134Z,3.72
2022-09-27T17:43:15.767Z,4.20
2022-09-27T17:45:44.094Z,3.28
2022-09-27T17:48:29.721Z,4.13
2022-09-27T17:50:58.249Z,3.67
2022-09-27T17:53:26.577Z,2.92
2022-09-27T17:56:02.461Z,3.28
2022-09-27T17:58:31.077Z,3.65
2022-09-27T18:01:04.343Z,3.78
2022-09-27T18:03:32.831Z,4.18
2022-09-27T18:06:06.070Z,3.80
2022-09-27T18:08:34.452Z,3.47
2022-09-27T18:11:09.245Z,4.18
2022-09-27T18:13:40.565Z,4.00
2022-09-27T18:16:11.297Z,4.22
2022-09-27T18:21:11.597Z,4.13
2022-09-27T18:23:40.741Z,3.88
2022-09-27T18:26:11.440Z,3.88
2022-09-27T18:31:11.484Z,4.10
2022-09-27T18:36:13.178Z,3.45
2022-09-27T18:38:41.970Z,3.45
2022-09-27T18:41:14.168Z,3.65
2022-09-27T18:43:44.225Z,3.60
2022-09-27T18:46:34.933Z,3.42
2022-09-27T18:49:05.092Z,3.10
2022-09-27T18:51:36.194Z,3.38
2022-09-27T18:54:08.183Z,3.35
2022-09-27T18:56:39.542Z,3.47
2022-09-27T18:59:10.201Z,3.28
2022-09-27T19:01:40.359Z,4.00
2022-09-27T19:04:09.823Z,4.57
2022-09-27T19:06:39.417Z,4.00
2022-09-27T19:09:10.914Z,3.75
2022-09-27T19:11:40.608Z,3.70
2022-09-27T19:14:08.883Z,4.10
2022-09-27T19:16:37.245Z,4.35
2022-09-27T19:19:05.497Z,4.00
2022-09-27T19:21:33.801Z,4.53
2022-09-27T19:24:02.682Z,4.18
2022-09-27T19:26:31.061Z,4.32
2022-09-27T19:29:02.276Z,4.28
2022-09-27T19:31:34.058Z,4.40
2022-09-27T19:34:02.471Z,4.50
2022-09-27T19:36:30.903Z,3.97
2022-09-27T19:39:00.031Z,4.38
2022-09-27T19:41:28.634Z,4.15
2022-09-27T19:44:00.209Z,4.15
2022-09-27T19:46:28.584Z,4.35
2022-09-27T19:48:56.988Z,3.80
2022-09-27T19:51:28.152Z,4.35
2022-09-27T19:53:56.895Z,3.70
2022-09-27T19:56:26.129Z,4.20
2022-09-27T19:58:54.575Z,3.88
2022-09-27T20:01:26.116Z,4.32
2022-09-27T20:03:56.811Z,4.68
2022-09-27T20:06:25.382Z,4.75
2022-09-27T20:08:53.766Z,4.63
2022-09-27T20:11:23.927Z,5.30
2022-09-27T20:13:54.004Z,4.72
2022-09-27T20:16:25.390Z,5.20
2022-09-27T20:18:56.145Z,3.72
2022-09-27T20:21:27.345Z,4.50
2022-09-27T20:23:57.954Z,4.28
2022-09-27T20:26:29.352Z,4.00
2022-09-27T20:28:59.637Z,3.90
2022-09-27T20:31:32.865Z,3.65
2022-09-27T20:34:01.490Z,4.30
2022-09-27T20:36:32.292Z,3.63
2022-09-27T20:39:03.543Z,3.72
2022-09-27T20:41:34.415Z,3.22
2022-09-27T20:46:35.043Z,3.25
2022-09-27T20:49:06.980Z,3.25
2022-09-27T20:51:38.798Z,3.28
2022-09-27T20:54:09.359Z,3.13
2022-09-27T20:56:41.673Z,3.15
2022-09-27T20:59:17.616Z,3.38
2022-09-27T21:01:49.363Z,3.47
2022-09-27T21:04:19.695Z,3.22
2022-09-27T21:06:48.245Z,3.42
2022-09-27T21:09:18.915Z,3.15
2022-09-27T21:11:48.389Z,3.03
2022-09-27T21:14:16.808Z,3.53
2022-09-27T21:16:45.212Z,3.78
2022-09-27T21:19:15.436Z,3.50
2022-09-27T21:21:43.922Z,3.00
2022-09-27T21:24:12.811Z,3.13
2022-09-27T21:26:41.084Z,3.30
2022-09-27T21:29:11.629Z,3.38
2022-09-27T21:31:40.082Z,2.85
2022-09-27T21:34:08.871Z,3.53
2022-09-27T21:36:40.298Z,3.72
2022-09-27T21:39:10.520Z,3.35
2022-09-27T21:41:39.838Z,3.78
2022-09-27T21:44:08.768Z,3.60
2022-09-27T21:46:41.590Z,3.42
2022-09-27T21:49:11.035Z,3.60
2022-09-27T21:51:42.240Z,3.72
2022-09-27T21:54:15.281Z,3.33
2022-09-27T21:56:44.908Z,3.25
2022-09-27T21:59:16.047Z,3.40
2022-09-27T22:01:46.028Z,3.58
2022-09-27T22:04:14.586Z,3.38
2022-09-27T22:06:44.489Z,3.75
2022-09-27T22:09:17.103Z,3.60
2022-09-27T22:11:47.352Z,3.65
2022-09-27T22:14:16.647Z,3.78
2022-09-27T22:16:44.921Z,5.03
2022-09-27T22:19:15.312Z,3.90
2022-09-27T22:21:45.464Z,3.75
2022-09-27T22:24:15.575Z,3.78
2022-09-27T22:26:49.057Z,3.78
2022-09-27T22:29:18.053Z,4.32
2022-09-27T22:31:46.696Z,3.78
2022-09-27T22:34:18.794Z,3.72
2022-09-27T22:36:48.628Z,3.80
2022-09-27T22:39:16.994Z,4.30
2022-09-27T22:41:45.412Z,3.85
2022-09-27T22:44:13.770Z,3.60
2022-09-27T22:46:42.497Z,3.33
2022-09-27T22:49:10.863Z,3.35
2022-09-27T22:51:39.105Z,4.20
2022-09-27T22:54:08.954Z,3.45
2022-09-27T22:56:37.245Z,3.58
2022-09-27T22:59:05.579Z,3.90
2022-09-27T23:01:36.719Z,3.28
2022-09-27T23:04:05.012Z,3.63
2022-09-27T23:06:33.429Z,3.40
2022-09-27T23:09:02.690Z,3.72
2022-09-27T23:11:33.126Z,3.30
2022-09-27T23:14:01.416Z,3.17
2022-09-27T23:16:29.746Z,3.60
2022-09-27T23:18:58.478Z,3.10
2022-09-27T23:21:28.652Z,3.72
2022-09-27T23:23:59.627Z,3.80
2022-09-27T23:26:31.018Z,3.10
2022-09-27T23:29:00.951Z,3.05
2022-09-27T23:31:31.387Z,3.50
2022-09-27T23:34:04.133Z,3.30
2022-09-27T23:36:32.476Z,3.67
2022-09-27T23:39:01.705Z,3.15
2022-09-27T23:41:31.373Z,3.60
2022-09-27T23:43:59.547Z,3.35
2022-09-27T23:46:28.947Z,3.42
2022-09-27T23:48:58.872Z,3.40
2022-09-27T23:51:27.357Z,3.25
2022-09-27T23:53:57.087Z,3.78
2022-09-27T23:56:25.527Z,3.42
2022-09-27T23:58:55.122Z,3.60
